createdAt,value
2022-10-24T00:01:22.965Z,30.35
2022-10-24T00:03:50.951Z,30.05
2022-10-24T00:06:20.004Z,28.17
2022-10-24T00:08:48.102Z,28.20
2022-10-24T00:11:28.230Z,27.30
2022-10-24T00:13:57.498Z,28.98
2022-10-24T00:16:25.415Z,29.55
2022-10-24T00:18:52.810Z,29.83
2022-10-24T00:21:21.390Z,26.38
2022-10-24T00:23:48.613Z,28.80
2022-10-24T00:26:16.802Z,30.65
2022-10-24T00:28:44.241Z,27.73
2022-10-24T00:31:19.512Z,26.23
2022-10-24T00:36:18.199Z,24.88
2022-10-24T00:38:45.793Z,28.25
2022-10-24T00:41:26.117Z,26.48
2022-10-24T00:44:23.982Z,24.20
2022-10-24T00:46:51.049Z,24.38
2022-10-24T00:49:23.484Z,25.38
2022-10-24T00:51:57.501Z,26.00
2022-10-24T00:54:25.037Z,26.05
2022-10-24T00:57:05.438Z,25.00
2022-10-24T00:59:36.301Z,25.60
2022-10-24T01:02:03.804Z,25.63
2022-10-24T01:04:30.706Z,26.10
2022-10-24T01:07:39.337Z,28.83
2022-10-24T01:11:04.611Z,27.08
2022-10-24T01:14:02.699Z,26.23
2022-10-24T01:17:04.865Z,27.40
2022-10-24T01:20:22.762Z,24.90
2022-10-24T01:23:11.092Z,27.10
2022-10-24T01:26:06.375Z,25.88
2022-10-24T01:28:53.579Z,24.17
2022-10-24T01:31:38.846Z,24.73
2022-10-24T01:34:26.214Z,24.73
2022-10-24T01:37:15.017Z,24.00
2022-10-24T01:39:50.287Z,23.88
2022-10-24T01:42:23.988Z,25.55
2022-10-24T01:44:57.469Z,24.63
2022-10-24T01:47:30.769Z,24.70
2022-10-24T01:50:05.796Z,24.50
2022-10-24T01:52:40.015Z,23.15
2022-10-24T01:55:08.924Z,22.00
2022-10-24T01:57:36.167Z,21.27
2022-10-24T02:00:08.040Z,21.67
2022-10-24T02:02:43.226Z,20.50
2022-10-24T02:05:27.395Z,17.73
2022-10-24T02:08:02.749Z,19.10
2022-10-24T07:13:39.352Z,2.88
2022-10-24T07:16:07.755Z,3.25
2022-10-24T07:18:34.923Z,3.63
2022-10-24T07:21:17.874Z,4.47
2022-10-24T07:23:45.222Z,4.22
2022-10-24T07:26:16.663Z,4.30
2022-10-24T07:28:47.921Z,4.28
2022-10-24T07:31:19.267Z,3.90
2022-10-24T07:33:46.415Z,4.07
2022-10-24T07:36:23.902Z,3.72
2022-10-24T07:38:54.372Z,3.45
2022-10-24T07:41:21.925Z,3.50
2022-10-24T07:43:48.828Z,3.40
2022-10-24T07:46:40.793Z,4.07
2022-10-24T07:49:24.777Z,3.75
2022-10-24T07:51:51.759Z,3.25
2022-10-24T07:54:25.775Z,4.00
2022-10-24T07:56:54.180Z,4.13
2022-10-24T07:59:40.704Z,3.92
2022-10-24T08:02:13.935Z,3.63
2022-10-24T08:04:41.401Z,3.78
2022-10-24T08:07:13.620Z,4.22
2022-10-24T08:09:47.029Z,4.88
2022-10-24T08:12:14.657Z,3.65
2022-10-24T08:14:42.198Z,3.60
2022-10-24T08:17:10.280Z,3.63
2022-10-24T08:19:37.213Z,3.72
2022-10-24T08:22:04.498Z,3.45
2022-10-24T08:24:31.351Z,3.60
2022-10-24T08:26:59.677Z,3.40
2022-10-24T08:29:26.792Z,2.90
2022-10-24T08:31:56.840Z,3.70
2022-10-24T08:34:23.802Z,4.30
2022-10-24T08:36:51.287Z,4.05
2022-10-24T08:39:19.103Z,3.78
2022-10-24T08:42:02.272Z,4.82
2022-10-24T08:44:33.192Z,3.83
2022-10-24T08:50:33.592Z,3.72
2022-10-24T08:53:00.657Z,4.13
2022-10-24T08:55:50.499Z,3.75
2022-10-24T08:58:28.655Z,4.00
2022-10-24T09:01:01.640Z,3.97
2022-10-24T09:04:01.856Z,3.85
2022-10-24T09:06:32.412Z,4.03
2022-10-24T09:09:15.550Z,3.90
2022-10-24T09:12:07.520Z,5.35
2022-10-24T09:14:40.867Z,4.07
2022-10-24T09:17:29.521Z,3.92
2022-10-24T09:20:14.929Z,3.67
2022-10-24T09:22:44.277Z,3.33
2022-10-24T09:25:16.855Z,3.30
2022-10-24T09:27:45.169Z,2.85
2022-10-24T09:30:30.032Z,3.90
2022-10-24T09:33:14.682Z,3.15
2022-10-24T09:35:43.281Z,3.65
2022-10-24T09:38:39.802Z,3.45
2022-10-24T09:41:24.088Z,3.53
2022-10-24T09:43:58.460Z,2.88
2022-10-24T09:46:29.715Z,2.72
2022-10-24T09:49:23.470Z,3.53
2022-10-24T09:55:22.416Z,3.33
2022-10-24T09:57:54.493Z,2.80
2022-10-24T10:00:29.711Z,2.95
2022-10-24T10:03:07.250Z,3.42
2022-10-24T10:05:48.998Z,3.00
2022-10-24T10:08:27.493Z,3.28
2022-10-24T10:11:08.821Z,3.08
2022-10-24T10:13:49.877Z,3.55
2022-10-24T10:16:33.028Z,3.40
2022-10-24T10:19:15.961Z,3.08
2022-10-24T10:22:05.596Z,3.20
2022-10-24T10:24:35.504Z,3.50
2022-10-24T10:27:39.554Z,3.17
2022-10-24T10:30:09.953Z,3.90
2022-10-24T10:33:19.045Z,3.90
2022-10-24T10:36:04.503Z,3.78
2022-10-24T10:41:41.458Z,3.78
2022-10-24T10:44:20.826Z,3.42
2022-10-24T10:47:10.230Z,3.80
2022-10-24T10:49:42.566Z,4.70
2022-10-24T10:52:32.089Z,3.75
2022-10-24T10:55:36.298Z,3.88
2022-10-24T10:58:27.289Z,4.10
2022-10-24T11:01:25.858Z,4.38
2022-10-24T11:04:15.156Z,4.82
2022-10-24T11:07:36.218Z,4.47
2022-10-24T11:10:10.930Z,5.05
2022-10-24T11:12:46.301Z,4.38
2022-10-24T11:15:41.795Z,4.25
2022-10-24T11:18:38.963Z,5.63
2022-10-24T11:21:09.983Z,5.70
2022-10-24T11:24:02.096Z,5.68
2022-10-24T11:26:41.238Z,4.85
2022-10-24T11:29:40.512Z,4.45
2022-10-24T11:32:22.583Z,4.90
2022-10-24T11:35:01.870Z,5.13
2022-10-24T11:37:38.717Z,5.00
2022-10-24T11:40:23.240Z,4.80
2022-10-24T11:43:30.639Z,4.00
2022-10-24T11:46:40.005Z,3.92
2022-10-24T11:49:43.756Z,4.05
2022-10-24T11:52:29.019Z,4.72
2022-10-24T11:55:06.105Z,7.00
2022-10-24T11:57:34.604Z,3.67
2022-10-24T12:00:02.126Z,3.70
2022-10-24T12:03:08.416Z,3.05
2022-10-24T12:06:48.620Z,3.00
2022-10-24T12:09:30.792Z,3.22
2022-10-24T12:12:25.645Z,3.45
2022-10-24T12:15:24.477Z,2.95
2022-10-24T12:18:28.275Z,3.28
2022-10-24T12:21:02.472Z,3.50
2022-10-24T12:23:31.631Z,2.40
2022-10-24T12:26:05.960Z,2.05
2022-10-24T12:28:34.302Z,3.17
2022-10-24T12:31:20.939Z,2.25
2022-10-24T12:34:15.970Z,2.17
2022-10-24T12:37:18.656Z,2.95
2022-10-24T12:39:50.375Z,3.72
2022-10-24T12:42:24.103Z,3.80
2022-10-24T12:45:12.767Z,3.40
2022-10-24T12:47:44.372Z,3.78
2022-10-24T12:50:23.376Z,2.30
2022-10-24T12:52:57.714Z,2.35
2022-10-24T12:56:14.279Z,3.60
2022-10-24T13:01:59.919Z,2.90
2022-10-24T13:05:42.178Z,2.10
2022-10-24T13:09:09.136Z,3.60
2022-10-24T13:12:06.713Z,2.80
2022-10-24T13:14:53.179Z,2.65
2022-10-24T13:17:59.909Z,2.88
2022-10-24T13:20:39.739Z,3.25
2022-10-24T13:23:27.775Z,2.60
2022-10-24T13:25:58.807Z,3.67
2022-10-24T13:28:25.660Z,3.25
2022-10-24T13:30:58.745Z,2.30
2022-10-24T13:33:31.835Z,2.58
2022-10-24T13:36:17.999Z,3.22
2022-10-24T13:38:48.585Z,4.18
2022-10-24T13:41:46.669Z,3.33
2022-10-24T13:44:33.236Z,2.72
2022-10-24T13:47:04.081Z,9.23
2022-10-24T13:49:48.295Z,6.95
2022-10-24T13:52:21.199Z,6.32
2022-10-24T13:54:56.792Z,3.80
2022-10-24T13:57:37.954Z,5.35
2022-10-24T14:00:48.593Z,5.93
2022-10-24T14:03:35.466Z,3.58
2022-10-24T14:06:08.405Z,5.57
2022-10-24T14:09:15.105Z,4.00
2022-10-24T14:11:48.608Z,7.30
2022-10-24T14:14:40.102Z,4.50
2022-10-24T14:17:08.581Z,2.60
2022-10-24T14:19:39.234Z,3.90
2022-10-24T14:22:28.051Z,3.95
2022-10-24T14:24:55.912Z,4.10
2022-10-24T14:27:24.320Z,4.57
2022-10-24T14:30:00.131Z,5.00
2022-10-24T14:32:30.928Z,4.45
2022-10-24T14:37:37.297Z,5.63
2022-10-24T14:40:11.840Z,4.28
2022-10-24T14:42:39.402Z,3.40
2022-10-24T14:45:20.980Z,4.57
2022-10-24T14:47:54.792Z,5.68
2022-10-24T14:50:47.183Z,3.70
2022-10-24T14:53:28.433Z,3.17
2022-10-24T14:56:00.084Z,2.80
2022-10-24T14:58:35.870Z,2.88
2022-10-24T15:01:03.898Z,2.83
2022-10-24T15:03:30.993Z,3.75
2022-10-24T15:06:12.516Z,3.50
2022-10-24T15:11:21.891Z,5.38
2022-10-24T15:14:05.881Z,5.70
2022-10-24T15:16:38.995Z,7.35
2022-10-24T15:19:18.126Z,9.68
2022-10-24T15:21:47.280Z,5.47
2022-10-24T15:24:25.002Z,5.85
2022-10-24T15:26:53.134Z,5.75
2022-10-24T15:29:23.251Z,8.57
2022-10-24T15:31:52.185Z,6.75
2022-10-24T15:34:22.890Z,5.68
2022-10-24T15:36:53.092Z,4.65
2022-10-24T15:39:24.638Z,7.78
2022-10-24T15:41:53.377Z,3.72
2022-10-24T15:44:27.851Z,4.03
2022-10-24T15:46:55.326Z,6.03
2022-10-24T15:49:22.755Z,4.10
2022-10-24T15:51:51.264Z,4.65
2022-10-24T15:54:22.402Z,4.95
2022-10-24T15:56:50.550Z,3.45
2022-10-24T15:59:19.966Z,3.88
2022-10-24T16:01:58.346Z,68.75
2022-10-24T16:04:25.350Z,29.50
2022-10-24T16:06:53.215Z,13.32
2022-10-24T16:09:25.133Z,8.00
2022-10-24T16:11:52.201Z,18.92
2022-10-24T16:14:22.959Z,50.08
2022-10-24T16:16:50.033Z,10.05
2022-10-24T16:19:16.930Z,35.35
2022-10-24T16:21:44.238Z,8.95
2022-10-24T16:24:12.965Z,4.90
2022-10-24T16:26:40.997Z,25.10
2022-10-24T16:29:08.025Z,8.57
2022-10-24T16:31:35.676Z,5.97
2022-10-24T16:34:03.187Z,10.75
2022-10-24T16:36:30.261Z,11.20
2022-10-24T16:38:57.063Z,4.22
2022-10-24T16:41:26.282Z,3.40
2022-10-24T16:43:57.859Z,3.08
2022-10-24T16:46:27.725Z,4.32
2022-10-24T16:48:56.355Z,3.67
2022-10-24T16:51:32.259Z,9.05
2022-10-24T16:54:02.023Z,4.05
2022-10-24T16:56:30.179Z,3.30
2022-10-24T16:58:57.551Z,3.58
2022-10-24T17:01:27.192Z,3.70
2022-10-24T17:03:54.306Z,3.05
2022-10-24T17:06:21.282Z,3.40
2022-10-24T17:08:48.396Z,3.20
2022-10-24T17:11:39.897Z,4.18
2022-10-24T17:14:02.626Z,3.70
2022-10-24T17:16:29.718Z,3.88
2022-10-24T17:19:12.322Z,2.97
2022-10-24T17:21:42.862Z,4.55
2022-10-24T17:24:12.480Z,3.67
2022-10-24T17:26:41.491Z,4.60
2022-10-24T17:29:13.842Z,12.45
2022-10-24T17:31:40.976Z,8.63
2022-10-24T17:34:10.223Z,10.90
2022-10-24T17:36:39.193Z,15.20
2022-10-24T17:39:20.685Z,6.10
2022-10-24T17:41:48.132Z,5.10
2022-10-24T17:44:18.080Z,4.32
2022-10-24T17:46:47.339Z,4.47
2022-10-24T17:49:20.771Z,4.90
2022-10-24T17:51:49.310Z,4.93
2022-10-24T17:54:16.884Z,5.30
2022-10-24T17:56:44.161Z,4.50
2022-10-24T17:59:11.162Z,5.00
2022-10-24T18:01:39.014Z,5.00
2022-10-24T18:04:06.407Z,11.48
2022-10-24T18:06:34.684Z,5.25
2022-10-24T18:09:02.609Z,6.50
2022-10-24T18:11:30.536Z,5.30
2022-10-24T18:13:57.904Z,6.28
2022-10-24T18:16:27.403Z,14.25
2022-10-24T18:18:57.056Z,5.88
2022-10-24T18:21:25.761Z,5.95
2022-10-24T18:23:54.089Z,5.55
2022-10-24T18:26:25.749Z,4.63
2022-10-24T18:28:55.723Z,7.20
2022-10-24T18:31:28.719Z,5.07
2022-10-24T18:33:59.244Z,4.68
2022-10-24T18:36:30.487Z,4.80
2022-10-24T18:39:01.757Z,5.55
2022-10-24T18:41:54.817Z,4.18
2022-10-24T18:44:25.241Z,5.28
2022-10-24T18:46:56.599Z,4.32
2022-10-24T18:49:24.472Z,4.63
2022-10-24T18:52:14.802Z,4.35
2022-10-24T18:55:04.577Z,4.22
2022-10-24T18:57:34.560Z,4.07
2022-10-24T19:00:01.572Z,4.05
2022-10-24T19:02:55.550Z,3.85
2022-10-24T19:06:24.288Z,4.72
2022-10-24T19:08:51.953Z,4.03
2022-10-24T19:11:19.246Z,4.60
2022-10-24T19:13:46.666Z,4.95
2022-10-24T19:16:28.588Z,3.95
2022-10-24T19:19:01.395Z,3.67
2022-10-24T19:21:29.003Z,3.85
2022-10-24T19:23:56.131Z,6.20
2022-10-24T19:26:23.007Z,2.83
2022-10-24T19:28:50.559Z,3.83
2022-10-24T19:31:17.549Z,3.60
2022-10-24T19:33:44.899Z,4.03
2022-10-24T19:36:15.574Z,3.42
2022-10-24T19:38:45.574Z,3.45
2022-10-24T19:41:12.792Z,2.85
2022-10-24T19:43:40.109Z,2.95
2022-10-24T19:46:19.280Z,4.22
2022-10-24T19:48:49.489Z,2.97
2022-10-24T19:51:18.926Z,3.88
2022-10-24T19:53:47.446Z,3.25
2022-10-24T19:56:20.168Z,2.67
2022-10-24T19:58:49.847Z,3.08
2022-10-24T20:01:20.739Z,4.13
2022-10-24T20:03:49.919Z,2.95
2022-10-24T20:06:18.215Z,3.60
2022-10-24T20:08:49.794Z,4.60
2022-10-24T20:11:17.526Z,4.45
2022-10-24T20:13:44.513Z,3.60
2022-10-24T20:16:11.626Z,3.90
2022-10-24T20:21:17.807Z,3.30
2022-10-24T20:23:49.174Z,3.83
2022-10-24T20:26:26.027Z,3.03
2022-10-24T20:28:55.947Z,3.28
2022-10-24T20:31:30.040Z,3.53
2022-10-24T20:34:05.183Z,3.60
2022-10-24T20:36:37.913Z,3.58
2022-10-24T20:39:08.855Z,3.53
2022-10-24T20:41:37.314Z,5.25
2022-10-24T20:44:07.099Z,3.58
2022-10-24T20:46:34.690Z,3.17
2022-10-24T20:49:02.551Z,3.30
2022-10-24T20:51:29.590Z,3.42
2022-10-24T20:53:57.645Z,2.88
2022-10-24T20:56:28.648Z,2.60
2022-10-24T20:58:56.617Z,3.33
2022-10-24T21:01:27.711Z,3.13
2022-10-24T21:03:57.252Z,2.75
2022-10-24T21:06:29.055Z,3.78
2022-10-24T21:09:00.147Z,2.88
2022-10-24T21:11:30.306Z,2.47
2022-10-24T21:14:05.869Z,2.70
2022-10-24T21:19:05.067Z,2.00
2022-10-24T21:21:32.341Z,2.10
2022-10-24T21:24:06.920Z,2.15
2022-10-24T21:26:40.112Z,1.83
2022-10-24T21:29:31.745Z,1.85
2022-10-24T21:31:57.059Z,2.97
2022-10-24T21:34:26.735Z,2.33
2022-10-24T21:36:57.406Z,2.20
2022-10-24T21:39:27.310Z,2.30
2022-10-24T21:41:55.568Z,2.90
2022-10-24T21:44:25.669Z,2.22
2022-10-24T21:46:54.426Z,2.38
2022-10-24T21:49:22.022Z,2.50
2022-10-24T21:51:49.493Z,2.40
2022-10-24T21:54:24.352Z,2.78
2022-10-24T21:56:51.754Z,1.98
2022-10-24T21:59:21.105Z,3.35
2022-10-24T22:01:51.231Z,2.38
2022-10-24T22:04:19.157Z,2.35
2022-10-24T22:06:46.586Z,2.40
2022-10-24T22:09:19.600Z,2.20
2022-10-24T22:11:47.108Z,2.78
2022-10-24T22:14:17.317Z,2.10
2022-10-24T22:16:44.542Z,1.88
2022-10-24T22:19:13.179Z,2.38
2022-10-24T22:21:44.567Z,2.03
2022-10-24T22:24:22.303Z,1.83
2022-10-24T22:26:51.231Z,1.50
2022-10-24T22:29:22.898Z,1.45
2022-10-24T22:31:52.102Z,1.42
2022-10-24T22:34:25.416Z,1.33
2022-10-24T22:37:27.428Z,1.52
2022-10-24T22:39:54.927Z,1.52
2022-10-24T22:42:22.149Z,1.88
2022-10-24T22:44:50.973Z,1.77
2022-10-24T22:47:38.962Z,1.92
2022-10-24T22:50:46.814Z,1.98
2022-10-24T22:53:17.578Z,1.58
2022-10-24T22:56:14.991Z,1.98
2022-10-24T22:58:45.318Z,1.75
2022-10-24T23:01:40.410Z,1.90
2022-10-24T23:04:26.114Z,1.95
2022-10-24T23:06:58.175Z,1.80
2022-10-24T23:09:25.021Z,2.22
2022-10-24T23:11:52.729Z,2.10
2022-10-24T23:14:20.095Z,2.05
2022-10-24T23:16:58.876Z,2.03
2022-10-24T23:19:29.769Z,2.03
2022-10-24T23:22:03.476Z,2.13
2022-10-24T23:24:30.550Z,1.88
2022-10-24T23:27:12.605Z,1.70
2022-10-24T23:29:43.490Z,1.70
2022-10-24T23:32:30.237Z,1.45
2022-10-24T23:34:59.298Z,1.55
2022-10-24T23:37:43.352Z,1.40
2022-10-24T23:40:37.018Z,1.42
2022-10-24T23:43:05.090Z,1.67
2022-10-24T23:45:48.861Z,1.30
2022-10-24T23:48:35.086Z,1.60
2022-10-24T23:51:37.133Z,1.75
2022-10-24T23:54:09.891Z,1.60
2022-10-24T23:56:37.324Z,1.90
2022-10-24T23:59:05.409Z,1.65
